Weather observations for the past three days for
Grand Marais, The Bay of Grand Marais
Imperial (Metric)
Date Time (cdt) Wind (mph) Vis. (mi.) Weather Sky Cond. Temperature (ºF) Relative Humidity Wind Chill (°F) Heat Index (°F) Pressure Precipitation (in)
Air Dwpt 6 hour altimeter (in) sea level (mb) 1 hr 3 hr 6 hr
Max. Min.
05 17:56 E 5 0.00 NULL NULL 66.9 59 76% 30.08 1018.1
05 16:56 E 6 0.00 NULL NULL 68 60.1 76% 30.08 1018.2
05 15:56 E 5 0.00 NULL NULL 68 59 73% 30.09 1018.4
05 14:56 E 6 0.00 NULL NULL 68 59 73% 30.1 1018.8
05 12:56 E 9 0.00 NULL NULL 68 57.9 70 63 70% 30.11 1019.2
05 11:56 E 9 0.00 NULL NULL 69.1 57 66% 30.12 1019.4
05 10:56 E 8 0.00 NULL NULL 69.1 57 66% 30.12 1019.5
05 09:56 E 8 0.00 NULL NULL 68 57 68% 30.11 1019.1
05 08:56 E 7 0.00 NULL NULL 68 55.9 65% 30.1 1018.8
05 07:56 E 7 0.00 NULL NULL 66 54 65% 30.08 1018.2
05 06:56 NE 6 0.00 NULL NULL 63 54 64 61 73% 30.06 1017.6
05 05:56 NE 6 0.00 NULL NULL 62.1 54 75% 30.06 1017.5
05 04:56 NE 5 0.00 NULL NULL 61 54 78% 30.06 1017.7
05 03:56 NE 5 0.00 NULL NULL 63 55 76% 30.07 1017.8
05 02:56 E 6 0.00 NULL NULL 63 55.9 78% 30.06 1017.4
05 01:56 E 3 0.00 NULL NULL 63 55.9 78% 30.05 1017.0
05 00:56 E 3 0.00 NULL NULL 64 57 66.9 64 78% 30.04 1016.9
04 23:56 NE 3 0.00 NULL NULL 64 57 78% 30.04 1016.9
04 22:56 E 5 0.00 NULL NULL 64.9 57 76% 30.05 1017.0
04 21:56 NE 5 0.00 NULL NULL 66.9 57.9 73% 30.04 1016.9
04 20:56 E 6 0.00 NULL NULL 66.9 59 76% 30.04 1016.7
04 19:56 E 7 0.00 NULL NULL 66.9 60.1 79% 30.02 1016.0
04 18:56 E 8 0.00 NULL NULL 66.9 60.1 66.9 64.9 79% 30.01 1015.9
04 17:56 E 8 0.00 NULL NULL 64.9 61 87% 30.01 1016.0
04 16:56 E 10 0.00 NULL NULL 64.9 61 87% 30 1015.7
04 15:56 E 9 0.00 NULL NULL 64.9 62.1 90% 30 1015.5
04 13:56 E 10 0.00 NULL NULL 66 61 84% 29.99 1015.2
04 12:56 E 14 0.00 NULL NULL 64.9 61 64.9 62.1 87% 29.99 1015.0
04 11:56 E 14 0.00 NULL NULL 64.9 61 87% 29.98 1014.9
04 10:56 E 14 0.00 NULL NULL 64 61 90% 29.98 1014.7
04 09:56 E 12 0.00 NULL NULL 64 62.1 93% 29.96 1014.0
04 08:56 E 12 0.00 NULL NULL 62.1 61 96% 29.96 1014.1
04 07:56 E 8 G 21 0.00 NULL NULL 63 60.1 90% 29.95 1013.9
04 06:56 E 12 G 20 0.00 NULL NULL 63 59 63 61 87% 29.93 1013.0 0.05
04 05:56 E 10 0.00 NULL NULL 62.1 59 90% 29.92 1012.7
04 04:56 E 9 0.00 NULL NULL 62.1 59 90% 29.92 1012.9
04 03:56 E 7 0.00 NULL NULL 61 59 93% 29.93 1013.2 0.03 0.05
04 02:56 NE 8 0.00 NULL NULL 61 59 93% 29.94 1013.4 0.02
04 01:56 E 7 0.00 NULL NULL 63 57 81% 29.96 1013.9
04 00:56 E 8 0.00 NULL NULL 61 57 66.9 60.1 87% 29.95 1013.6 0.18
03 23:56 E 10 0.00 NULL NULL 61 57.9 90% 29.96 1013.9 0.08
03 22:56 E 15 0.00 NULL NULL 63 59 87% 29.97 1014.5 0.1
03 21:56 E 14 0.00 NULL NULL 66.9 55 66% 29.95 1013.6
03 20:56 E 13 G 23 0.00 NULL NULL 66.9 57.9 73% 29.95 1013.6
03 19:56 E 15 0.00 NULL NULL 64.9 61 87% 29.94 1013.3
03 18:56 E 10 0.00 NULL NULL 66 60.1 69.1 64.9 81% 29.93 1013.1
03 17:56 E 13 0.00 NULL NULL 64.9 60.1 84% 29.95 1013.8
03 16:56 E 15 G 23 0.00 NULL NULL 66 60.1 81% 29.93 1013.4
03 15:56 E 13 0.00 NULL NULL 66.9 60.1 79% 29.94 1013.6
03 14:56 E 10 0.00 NULL NULL 69.1 61 76% 29.95 1013.7
03 13:56 E 10 0.00 NULL NULL 66.9 61 81% 29.96 1014.1
03 12:56 E 10 0.00 NULL NULL 68 60.1 69.1 61 76% 29.96 1014.1
03 11:56 E 10 0.00 NULL NULL 69.1 59 70% 29.97 1014.3
03 10:56 E 9 0.00 NULL NULL 68 59 73% 29.98 1014.9
03 09:56 E 10 0.00 NULL NULL 68 59 73% 29.98 1014.8
03 08:56 E 8 0.00 NULL NULL 66.9 57.9 73% 29.98 1014.6
03 07:56 E 8 0.00 NULL NULL 66 57 73% 29.97 1014.3
03 06:56 NE 6 0.00 NULL NULL 60.1 55.9 60.1 54 86% 29.96 1014.2
03 05:56 NE 5 0.00 NULL NULL 57.9 55 90% 29.95 1013.7
03 04:56 NE 3 0.00 NULL NULL 55 54 96% 29.95 1013.9
03 03:56 N 5 0.00 NULL NULL 55 54 96% 29.95 1013.8
03 02:56 N 3 0.00 NULL NULL 55.9 55 97% 29.95 1013.8
03 01:56 Calm 0.00 NULL NULL 57 57 100% 29.94 1013.7
03 00:56 Calm 0.00 NULL NULL 59 57 64.9 57.9 93% 29.94 1013.5
02 23:56 Calm 0.00 NULL NULL 59 57.9 96% 29.93 1013.3
02 22:56 Calm 0.00 NULL NULL 59 57.9 96% 29.93 1013.1
02 21:56 Calm 0.00 NULL NULL 61 60.1 97% 29.92 1012.9
02 20:56 Calm 0.00 NULL NULL 64.9 61 87% 29.92 1012.6
02 19:56 Calm 0.00 NULL NULL 64 61 90% 29.91 1012.3
02 18:56 Calm 0.00 NULL NULL 64.9 61 68 64 87% 29.9 1012.2
Date Time (cdt) Wind (mph) Vis. (mi.) Weather Sky Cond. Air Dwpt Max. Min. Relative Humidity Wind Chill (°F) Heat Index (°F) altimeter (in) sea level (mb) 1 hr 3 hr 6 hr
6 hour
Temperature (ºF) Pressure Precipitation (in)